sensor_id;sensor_type;location;lat;lon;timestamp;P1;durP1;ratioP1;P2;durP2;ratioP2
70757;SDS011;59316;52.964;7.102;2023-07-29T00:05:07;15.23;;;10.07;;
70757;SDS011;59316;52.964;7.102;2023-07-29T00:10:30;14.57;;;8.65;;
70757;SDS011;59316;52.964;7.102;2023-07-29T00:15:53;15.37;;;8.83;;
70757;SDS011;59316;52.964;7.102;2023-07-29T00:21:15;13.60;;;8.63;;
70757;SDS011;59316;52.964;7.102;2023-07-29T00:26:37;12.73;;;7.97;;
70757;SDS011;59316;52.964;7.102;2023-07-29T00:31:58;13.93;;;8.75;;
70757;SDS011;59316;52.964;7.102;2023-07-29T00:37:20;13.25;;;8.68;;
70757;SDS011;59316;52.964;7.102;2023-07-29T00:42:42;17.35;;;9.38;;
70757;SDS011;59316;52.964;7.102;2023-07-29T00:48:04;18.98;;;10.80;;
70757;SDS011;59316;52.964;7.102;2023-07-29T07:35:06;10.68;;;4.50;;
70757;SDS011;59316;52.964;7.102;2023-07-29T07:40:27;9.23;;;5.00;;
70757;SDS011;59316;52.964;7.102;2023-07-29T07:45:49;7.85;;;4.25;;
70757;SDS011;59316;52.964;7.102;2023-07-29T07:51:11;7.28;;;4.13;;
70757;SDS011;59316;52.964;7.102;2023-07-29T07:56:32;7.00;;;4.13;;
70757;SDS011;59316;52.964;7.102;2023-07-29T08:01:53;6.93;;;3.67;;
70757;SDS011;59316;52.964;7.102;2023-07-29T08:07:15;8.23;;;4.05;;
70757;SDS011;59316;52.964;7.102;2023-07-29T08:12:36;7.07;;;3.90;;
70757;SDS011;59316;52.964;7.102;2023-07-29T08:17:57;7.60;;;4.20;;
70757;SDS011;59316;52.964;7.102;2023-07-29T08:23:18;8.07;;;4.47;;
70757;SDS011;59316;52.964;7.102;2023-07-29T08:28:39;6.45;;;4.00;;
70757;SDS011;59316;52.964;7.102;2023-07-29T08:34:00;6.80;;;4.13;;
70757;SDS011;59316;52.964;7.102;2023-07-29T08:39:21;8.38;;;3.90;;
70757;SDS011;59316;52.964;7.102;2023-07-29T08:44:43;5.95;;;3.28;;
70757;SDS011;59316;52.964;7.102;2023-07-29T08:50:05;6.68;;;3.42;;
70757;SDS011;59316;52.964;7.102;2023-07-29T08:55:26;5.65;;;3.00;;
70757;SDS011;59316;52.964;7.102;2023-07-29T09:00:48;4.68;;;2.50;;
70757;SDS011;59316;52.964;7.102;2023-07-29T09:06:09;4.82;;;2.40;;
70757;SDS011;59316;52.964;7.102;2023-07-29T09:11:30;3.55;;;2.25;;
70757;SDS011;59316;52.964;7.102;2023-07-29T09:16:51;6.13;;;2.20;;
70757;SDS011;59316;52.964;7.102;2023-07-29T09:22:21;3.45;;;2.20;;
70757;SDS011;59316;52.964;7.102;2023-07-29T09:27:42;3.28;;;2.20;;
70757;SDS011;59316;52.964;7.102;2023-07-29T09:33:03;3.30;;;1.90;;
70757;SDS011;59316;52.964;7.102;2023-07-29T09:38:27;3.97;;;2.25;;
70757;SDS011;59316;52.964;7.102;2023-07-29T09:43:51;4.60;;;2.65;;
70757;SDS011;59316;52.964;7.102;2023-07-29T09:49:16;3.10;;;2.55;;
70757;SDS011;59316;52.964;7.102;2023-07-29T09:54:37;4.43;;;2.50;;
70757;SDS011;59316;52.964;7.102;2023-07-29T09:59:59;2.53;;;1.90;;
70757;SDS011;59316;52.964;7.102;2023-07-29T10:05:20;4.32;;;2.08;;
70757;SDS011;59316;52.964;7.102;2023-07-29T10:10:42;3.53;;;1.77;;
70757;SDS011;59316;52.964;7.102;2023-07-29T10:16:03;3.85;;;1.80;;
70757;SDS011;59316;52.964;7.102;2023-07-29T10:21:24;2.53;;;1.85;;
70757;SDS011;59316;52.964;7.102;2023-07-29T10:26:46;3.92;;;1.60;;
70757;SDS011;59316;52.964;7.102;2023-07-29T10:32:10;3.25;;;1.63;;
70757;SDS011;59316;52.964;7.102;2023-07-29T10:37:32;5.03;;;1.70;;
70757;SDS011;59316;52.964;7.102;2023-07-29T10:43:00;2.75;;;1.80;;
70757;SDS011;59316;52.964;7.102;2023-07-29T10:54:00;2.88;;;1.30;;
70757;SDS011;59316;52.964;7.102;2023-07-29T11:05:07;4.10;;;1.75;;
70757;SDS011;59316;52.964;7.102;2023-07-29T11:10:42;3.33;;;1.30;;
70757;SDS011;59316;52.964;7.102;2023-07-29T11:16:04;1.88;;;1.48;;
70757;SDS011;59316;52.964;7.102;2023-07-29T11:21:26;1.38;;;1.00;;
70757;SDS011;59316;52.964;7.102;2023-07-29T11:26:47;3.20;;;1.25;;
70757;SDS011;59316;52.964;7.102;2023-07-29T11:32:09;2.20;;;1.33;;
70757;SDS011;59316;52.964;7.102;2023-07-29T11:37:30;3.78;;;1.50;;
70757;SDS011;59316;52.964;7.102;2023-07-29T11:42:52;1.92;;;1.20;;
70757;SDS011;59316;52.964;7.102;2023-07-29T11:48:14;2.20;;;1.77;;
70757;SDS011;59316;52.964;7.102;2023-07-29T11:53:35;5.88;;;2.20;;
70757;SDS011;59316;52.964;7.102;2023-07-29T11:58:57;2.80;;;1.85;;
70757;SDS011;59316;52.964;7.102;2023-07-29T12:04:18;8.20;;;2.00;;
70757;SDS011;59316;52.964;7.102;2023-07-29T12:09:39;4.43;;;2.22;;
70757;SDS011;59316;52.964;7.102;2023-07-29T12:15:01;4.20;;;2.07;;
70757;SDS011;59316;52.964;7.102;2023-07-29T12:20:23;3.78;;;2.30;;
70757;SDS011;59316;52.964;7.102;2023-07-29T12:25:44;2.65;;;1.80;;
70757;SDS011;59316;52.964;7.102;2023-07-29T12:31:07;2.85;;;1.75;;
70757;SDS011;59316;52.964;7.102;2023-07-29T12:36:44;6.45;;;2.17;;
70757;SDS011;59316;52.964;7.102;2023-07-29T12:42:06;5.35;;;2.10;;
70757;SDS011;59316;52.964;7.102;2023-07-29T12:47:27;3.75;;;1.95;;
70757;SDS011;59316;52.964;7.102;2023-07-29T12:52:48;4.03;;;1.65;;
70757;SDS011;59316;52.964;7.102;2023-07-29T12:58:10;2.65;;;1.70;;
70757;SDS011;59316;52.964;7.102;2023-07-29T13:03:31;3.92;;;1.98;;
70757;SDS011;59316;52.964;7.102;2023-07-29T13:08:52;3.65;;;1.73;;
70757;SDS011;59316;52.964;7.102;2023-07-29T13:14:13;3.00;;;1.63;;
70757;SDS011;59316;52.964;7.102;2023-07-29T13:19:34;3.20;;;1.63;;
70757;SDS011;59316;52.964;7.102;2023-07-29T13:24:55;3.42;;;1.60;;
70757;SDS011;59316;52.964;7.102;2023-07-29T13:30:17;3.47;;;1.52;;
70757;SDS011;59316;52.964;7.102;2023-07-29T13:35:38;2.17;;;1.42;;
70757;SDS011;59316;52.964;7.102;2023-07-29T13:40:59;3.30;;;1.83;;
70757;SDS011;59316;52.964;7.102;2023-07-29T13:46:20;3.97;;;1.50;;
70757;SDS011;59316;52.964;7.102;2023-07-29T13:51:41;4.00;;;1.75;;
70757;SDS011;59316;52.964;7.102;2023-07-29T13:57:02;5.28;;;1.90;;
70757;SDS011;59316;52.964;7.102;2023-07-29T14:02:23;3.90;;;1.95;;
70757;SDS011;59316;52.964;7.102;2023-07-29T14:07:44;4.72;;;1.80;;
70757;SDS011;59316;52.964;7.102;2023-07-29T14:13:06;2.97;;;1.63;;
70757;SDS011;59316;52.964;7.102;2023-07-29T14:18:27;4.93;;;1.70;;
70757;SDS011;59316;52.964;7.102;2023-07-29T14:23:48;4.47;;;1.88;;
70757;SDS011;59316;52.964;7.102;2023-07-29T14:29:09;3.88;;;1.95;;
70757;SDS011;59316;52.964;7.102;2023-07-29T14:34:30;4.10;;;2.10;;
70757;SDS011;59316;52.964;7.102;2023-07-29T14:39:51;3.63;;;1.90;;
70757;SDS011;59316;52.964;7.102;2023-07-29T14:45:12;4.90;;;1.55;;
70757;SDS011;59316;52.964;7.102;2023-07-29T14:50:34;2.42;;;1.30;;
70757;SDS011;59316;52.964;7.102;2023-07-29T14:55:55;2.83;;;1.45;;
70757;SDS011;59316;52.964;7.102;2023-07-29T15:01:16;3.55;;;1.30;;
70757;SDS011;59316;52.964;7.102;2023-07-29T15:06:37;3.47;;;1.52;;
70757;SDS011;59316;52.964;7.102;2023-07-29T15:11:58;4.40;;;1.30;;
70757;SDS011;59316;52.964;7.102;2023-07-29T15:17:19;3.33;;;1.45;;
70757;SDS011;59316;52.964;7.102;2023-07-29T15:22:40;4.28;;;1.73;;
70757;SDS011;59316;52.964;7.102;2023-07-29T15:28:02;2.40;;;1.30;;
70757;SDS011;59316;52.964;7.102;2023-07-29T15:33:23;2.78;;;1.65;;
70757;SDS011;59316;52.964;7.102;2023-07-29T15:38:44;5.82;;;1.65;;
70757;SDS011;59316;52.964;7.102;2023-07-29T15:44:05;3.45;;;1.50;;
70757;SDS011;59316;52.964;7.102;2023-07-29T15:49:26;3.10;;;1.80;;
70757;SDS011;59316;52.964;7.102;2023-07-29T15:54:47;3.33;;;2.20;;
70757;SDS011;59316;52.964;7.102;2023-07-29T16:00:09;3.22;;;2.25;;
70757;SDS011;59316;52.964;7.102;2023-07-29T16:05:31;6.88;;;2.60;;
70757;SDS011;59316;52.964;7.102;2023-07-29T16:10:52;4.07;;;2.00;;
70757;SDS011;59316;52.964;7.102;2023-07-29T16:16:13;2.33;;;1.65;;
70757;SDS011;59316;52.964;7.102;2023-07-29T16:21:34;3.47;;;1.80;;
70757;SDS011;59316;52.964;7.102;2023-07-29T16:26:55;3.90;;;1.95;;
70757;SDS011;59316;52.964;7.102;2023-07-29T16:32:17;3.47;;;1.98;;
70757;SDS011;59316;52.964;7.102;2023-07-29T16:37:38;4.00;;;2.10;;
70757;SDS011;59316;52.964;7.102;2023-07-29T16:42:59;3.40;;;1.90;;
70757;SDS011;59316;52.964;7.102;2023-07-29T16:48:20;4.75;;;1.73;;
70757;SDS011;59316;52.964;7.102;2023-07-29T16:53:41;4.03;;;1.65;;
70757;SDS011;59316;52.964;7.102;2023-07-29T16:59:03;2.50;;;1.52;;
70757;SDS011;59316;52.964;7.102;2023-07-29T17:04:24;4.22;;;1.35;;
70757;SDS011;59316;52.964;7.102;2023-07-29T17:09:45;2.28;;;1.25;;
70757;SDS011;59316;52.964;7.102;2023-07-29T17:15:06;2.10;;;1.00;;
70757;SDS011;59316;52.964;7.102;2023-07-29T17:20:28;1.92;;;1.13;;
70757;SDS011;59316;52.964;7.102;2023-07-29T17:25:49;3.05;;;1.35;;
70757;SDS011;59316;52.964;7.102;2023-07-29T17:31:10;1.80;;;1.10;;
70757;SDS011;59316;52.964;7.102;2023-07-29T17:36:31;1.98;;;1.23;;
70757;SDS011;59316;52.964;7.102;2023-07-29T17:41:52;1.33;;;1.00;;
70757;SDS011;59316;52.964;7.102;2023-07-29T17:47:13;1.92;;;0.90;;
70757;SDS011;59316;52.964;7.102;2023-07-29T17:52:34;3.72;;;1.20;;
70757;SDS011;59316;52.964;7.102;2023-07-29T17:57:55;2.45;;;0.82;;
70757;SDS011;59316;52.964;7.102;2023-07-29T18:03:16;3.38;;;0.90;;
70757;SDS011;59316;52.964;7.102;2023-07-29T18:08:38;2.25;;;1.20;;
70757;SDS011;59316;52.964;7.102;2023-07-29T18:13:59;2.33;;;0.90;;
70757;SDS011;59316;52.964;7.102;2023-07-29T18:19:20;2.38;;;0.90;;
70757;SDS011;59316;52.964;7.102;2023-07-29T18:24:41;1.95;;;1.08;;
70757;SDS011;59316;52.964;7.102;2023-07-29T18:30:03;1.88;;;1.00;;
70757;SDS011;59316;52.964;7.102;2023-07-29T18:35:24;1.42;;;1.00;;
70757;SDS011;59316;52.964;7.102;2023-07-29T18:40:45;3.90;;;1.30;;
70757;SDS011;59316;52.964;7.102;2023-07-29T18:46:06;2.08;;;1.13;;
70757;SDS011;59316;52.964;7.102;2023-07-29T18:51:28;3.08;;;1.35;;
70757;SDS011;59316;52.964;7.102;2023-07-29T18:56:49;1.65;;;1.00;;
70757;SDS011;59316;52.964;7.102;2023-07-29T19:02:09;2.90;;;1.48;;
70757;SDS011;59316;52.964;7.102;2023-07-29T19:07:31;2.25;;;1.13;;
70757;SDS011;59316;52.964;7.102;2023-07-29T19:12:52;2.88;;;1.35;;
70757;SDS011;59316;52.964;7.102;2023-07-29T19:18:13;1.95;;;1.38;;
70757;SDS011;59316;52.964;7.102;2023-07-29T19:23:34;2.85;;;1.30;;
70757;SDS011;59316;52.964;7.102;2023-07-29T19:28:55;3.50;;;1.35;;
70757;SDS011;59316;52.964;7.102;2023-07-29T19:34:16;4.18;;;1.45;;
70757;SDS011;59316;52.964;7.102;2023-07-29T19:39:39;2.15;;;1.52;;
70757;SDS011;59316;52.964;7.102;2023-07-29T19:45:00;6.72;;;1.98;;
70757;SDS011;59316;52.964;7.102;2023-07-29T19:50:21;9.35;;;4.30;;
70757;SDS011;59316;52.964;7.102;2023-07-29T19:55:44;3.35;;;2.30;;
70757;SDS011;59316;52.964;7.102;2023-07-29T20:01:05;3.45;;;2.20;;
70757;SDS011;59316;52.964;7.102;2023-07-29T20:06:26;5.03;;;1.98;;
70757;SDS011;59316;52.964;7.102;2023-07-29T20:11:47;4.35;;;1.70;;
70757;SDS011;59316;52.964;7.102;2023-07-29T20:17:08;3.78;;;2.03;;
70757;SDS011;59316;52.964;7.102;2023-07-29T20:22:29;5.47;;;2.28;;
70757;SDS011;59316;52.964;7.102;2023-07-29T20:27:51;5.30;;;2.15;;
70757;SDS011;59316;52.964;7.102;2023-07-29T20:33:12;2.88;;;2.03;;
70757;SDS011;59316;52.964;7.102;2023-07-29T20:38:33;4.07;;;2.28;;
70757;SDS011;59316;52.964;7.102;2023-07-29T20:43:54;4.93;;;2.88;;
70757;SDS011;59316;52.964;7.102;2023-07-29T20:49:15;5.00;;;2.30;;
70757;SDS011;59316;52.964;7.102;2023-07-29T20:54:36;4.75;;;3.03;;
70757;SDS011;59316;52.964;7.102;2023-07-29T20:59:58;3.55;;;2.40;;
70757;SDS011;59316;52.964;7.102;2023-07-29T21:05:19;5.10;;;2.33;;
70757;SDS011;59316;52.964;7.102;2023-07-29T21:10:40;6.72;;;2.22;;
70757;SDS011;59316;52.964;7.102;2023-07-29T21:16:01;5.50;;;2.25;;
70757;SDS011;59316;52.964;7.102;2023-07-29T21:21:22;5.25;;;2.80;;
70757;SDS011;59316;52.964;7.102;2023-07-29T21:26:43;4.93;;;2.45;;
70757;SDS011;59316;52.964;7.102;2023-07-29T21:32:05;4.25;;;2.50;;
70757;SDS011;59316;52.964;7.102;2023-07-29T21:37:27;5.70;;;2.60;;
70757;SDS011;59316;52.964;7.102;2023-07-29T21:42:56;4.18;;;2.42;;
70757;SDS011;59316;52.964;7.102;2023-07-29T21:48:17;4.05;;;2.33;;
70757;SDS011;59316;52.964;7.102;2023-07-29T21:53:38;5.55;;;2.72;;
70757;SDS011;59316;52.964;7.102;2023-07-29T21:59:00;6.00;;;3.08;;
70757;SDS011;59316;52.964;7.102;2023-07-29T22:04:21;7.18;;;3.30;;
70757;SDS011;59316;52.964;7.102;2023-07-29T22:09:43;6.20;;;3.10;;
70757;SDS011;59316;52.964;7.102;2023-07-29T22:15:04;6.80;;;3.35;;
70757;SDS011;59316;52.964;7.102;2023-07-29T22:20:26;7.47;;;4.10;;
70757;SDS011;59316;52.964;7.102;2023-07-29T22:25:58;8.48;;;4.20;;
70757;SDS011;59316;52.964;7.102;2023-07-29T22:31:20;7.57;;;3.72;;
70757;SDS011;59316;52.964;7.102;2023-07-29T22:36:42;9.35;;;4.18;;
70757;SDS011;59316;52.964;7.102;2023-07-29T22:42:04;9.88;;;4.25;;
70757;SDS011;59316;52.964;7.102;2023-07-29T22:47:25;7.38;;;4.60;;
70757;SDS011;59316;52.964;7.102;2023-07-29T22:52:47;12.52;;;4.68;;
70757;SDS011;59316;52.964;7.102;2023-07-29T22:58:09;15.93;;;5.30;;
70757;SDS011;59316;52.964;7.102;2023-07-29T23:03:31;8.55;;;4.47;;
70757;SDS011;59316;52.964;7.102;2023-07-29T23:08:54;11.55;;;4.93;;
70757;SDS011;59316;52.964;7.102;2023-07-29T23:14:15;13.95;;;5.65;;
70757;SDS011;59316;52.964;7.102;2023-07-29T23:19:36;15.02;;;6.68;;
70757;SDS011;59316;52.964;7.102;2023-07-29T23:24:57;14.77;;;7.20;;
70757;SDS011;59316;52.964;7.102;2023-07-29T23:30:19;13.57;;;6.45;;
70757;SDS011;59316;52.964;7.102;2023-07-29T23:35:40;13.15;;;6.93;;
70757;SDS011;59316;52.964;7.102;2023-07-29T23:41:02;17.20;;;7.75;;
70757;SDS011;59316;52.964;7.102;2023-07-29T23:46:23;18.35;;;8.20;;
70757;SDS011;59316;52.964;7.102;2023-07-29T23:51:44;21.40;;;9.00;;
70757;SDS011;59316;52.964;7.102;2023-07-29T23:57:05;17.83;;;8.55;;
